createdAt,value
2017-05-14T00:01:10.900Z,0
2017-05-14T00:02:22.847Z,0
2017-05-14T00:03:35.392Z,0
2017-05-14T00:04:47.622Z,0
2017-05-14T00:06:00.142Z,0
2017-05-14T00:07:12.687Z,0
2017-05-14T00:08:25.248Z,0
2017-05-14T00:09:37.818Z,0
2017-05-14T00:10:50.349Z,0
2017-05-14T00:12:02.894Z,0
2017-05-14T00:13:15.458Z,0
2017-05-14T00:14:27.991Z,0
2017-05-14T00:15:40.205Z,0
2017-05-14T00:16:52.731Z,0
2017-05-14T00:18:05.275Z,0
2017-05-14T00:19:17.516Z,0
2017-05-14T00:20:29.745Z,0
2017-05-14T00:21:42.310Z,0
2017-05-14T00:22:54.836Z,0
2017-05-14T00:24:07.383Z,0
2017-05-14T00:25:19.615Z,0
2017-05-14T00:26:31.850Z,0
2017-05-14T00:27:44.386Z,0
2017-05-14T00:28:56.914Z,0
2017-05-14T00:30:09.449Z,0
2017-05-14T00:31:21.698Z,0
2017-05-14T00:32:34.224Z,0
2017-05-14T00:33:47.044Z,0
2017-05-14T00:34:59.570Z,0
2017-05-14T00:36:12.103Z,0
2017-05-14T00:37:24.635Z,0
2017-05-14T00:38:36.878Z,0
2017-05-14T00:39:49.698Z,0
2017-05-14T00:41:02.221Z,0
2017-05-14T00:42:14.486Z,0
2017-05-14T00:43:26.990Z,0
2017-05-14T00:44:39.789Z,0
2017-05-14T00:45:52.380Z,0
2017-05-14T00:47:04.927Z,0
2017-05-14T00:48:17.491Z,0
2017-05-14T00:49:29.716Z,0
2017-05-14T00:50:42.255Z,0
2017-05-14T00:51:54.515Z,0
2017-05-14T00:53:07.055Z,0
2017-05-14T00:54:19.592Z,0
2017-05-14T00:55:31.820Z,0
2017-05-14T00:56:44.334Z,0
2017-05-14T00:57:56.839Z,0
2017-05-14T00:59:09.057Z,0
2017-05-14T01:00:21.585Z,0
2017-05-14T01:01:36.767Z,0
2017-05-14T01:02:52.176Z,0
2017-05-14T01:04:06.222Z,0
2017-05-14T01:05:19.155Z,0
2017-05-14T01:06:31.683Z,0
2017-05-14T01:07:44.244Z,0
2017-05-14T01:08:57.129Z,0
2017-05-14T01:10:09.875Z,0
2017-05-14T01:11:22.437Z,0
2017-05-14T01:12:34.684Z,0
2017-05-14T01:13:47.227Z,0
2017-05-14T01:14:59.175Z,0
2017-05-14T01:16:11.726Z,0
2017-05-14T01:17:24.246Z,0
2017-05-14T01:18:36.767Z,0
2017-05-14T01:19:48.992Z,0
2017-05-14T01:21:01.236Z,0
2017-05-14T01:22:13.735Z,0
2017-05-14T01:23:25.954Z,0
2017-05-14T01:24:38.193Z,0
2017-05-14T01:25:50.739Z,0
2017-05-14T01:27:03.267Z,0
2017-05-14T01:28:15.530Z,0
2017-05-14T01:29:28.085Z,0
2017-05-14T01:30:40.326Z,0
2017-05-14T01:31:52.852Z,0
2017-05-14T01:33:05.411Z,0
2017-05-14T01:34:17.941Z,0
2017-05-14T01:35:30.440Z,0
2017-05-14T01:36:42.959Z,0
2017-05-14T01:37:55.506Z,0
2017-05-14T01:39:08.052Z,0
2017-05-14T01:40:19.964Z,0
2017-05-14T01:41:32.518Z,0
2017-05-14T01:42:45.060Z,0
2017-05-14T01:43:57.609Z,0
2017-05-14T01:45:09.820Z,0
2017-05-14T01:46:22.049Z,0
2017-05-14T01:47:34.270Z,0
2017-05-14T01:48:46.794Z,0
2017-05-14T01:49:59.339Z,0
2017-05-14T01:51:11.908Z,0
2017-05-14T01:52:24.174Z,0
2017-05-14T01:53:36.720Z,0
2017-05-14T01:54:49.520Z,0
2017-05-14T01:56:02.066Z,0
2017-05-14T01:57:14.614Z,0
2017-05-14T01:58:26.528Z,0
2017-05-14T01:59:39.057Z,0
2017-05-14T02:00:51.320Z,0
2017-05-14T02:02:03.566Z,0
2017-05-14T02:03:15.496Z,0
2017-05-14T02:04:27.740Z,0
2017-05-14T02:05:40.004Z,0
2017-05-14T02:06:52.554Z,0
2017-05-14T02:08:05.104Z,0
2017-05-14T02:09:17.364Z,0
2017-05-14T02:10:29.921Z,0
2017-05-14T02:11:42.462Z,0
2017-05-14T02:12:55.008Z,0
2017-05-14T02:14:07.529Z,0
2017-05-14T02:15:20.100Z,0
2017-05-14T02:16:32.345Z,0
2017-05-14T02:17:44.542Z,0
2017-05-14T02:18:56.466Z,0
2017-05-14T02:20:09.012Z,0
2017-05-14T02:21:21.259Z,0
2017-05-14T02:22:33.504Z,0
2017-05-14T02:23:45.752Z,0
2017-05-14T02:24:58.293Z,0
2017-05-14T02:26:10.513Z,0
2017-05-14T02:27:23.305Z,0
2017-05-14T02:28:35.822Z,0
2017-05-14T02:29:48.355Z,0
2017-05-14T02:31:00.592Z,4
2017-05-14T02:32:12.521Z,4
2017-05-14T02:33:25.070Z,4
2017-05-14T02:34:37.591Z,0
2017-05-14T02:35:50.133Z,4
2017-05-14T02:37:02.680Z,4
2017-05-14T02:38:14.923Z,8
2017-05-14T02:39:27.422Z,4
2017-05-14T02:40:39.964Z,8
2017-05-14T02:41:52.477Z,8
2017-05-14T02:43:05.032Z,12
2017-05-14T02:44:17.261Z,12
2017-05-14T02:45:29.802Z,16
2017-05-14T02:46:42.319Z,16
2017-05-14T02:47:54.866Z,20
2017-05-14T02:49:07.104Z,20
2017-05-14T02:50:19.354Z,28
2017-05-14T02:51:31.895Z,32
2017-05-14T02:52:44.427Z,36
2017-05-14T02:53:56.969Z,40
2017-05-14T02:55:09.519Z,44
2017-05-14T02:56:21.465Z,52
2017-05-14T02:57:34.009Z,64
2017-05-14T02:58:46.553Z,72
2017-05-14T02:59:59.327Z,84
2017-05-14T03:01:11.850Z,96
2017-05-14T03:02:24.144Z,112
2017-05-14T03:03:36.754Z,124
2017-05-14T03:04:49.285Z,136
2017-05-14T03:06:01.829Z,160
2017-05-14T03:07:14.053Z,176
2017-05-14T03:08:26.298Z,196
2017-05-14T03:09:38.516Z,220
2017-05-14T03:10:51.045Z,240
2017-05-14T03:12:03.283Z,264
2017-05-14T03:13:15.534Z,292
2017-05-14T03:14:27.777Z,316
2017-05-14T03:15:40.300Z,348
2017-05-14T03:16:52.546Z,380
2017-05-14T03:18:05.062Z,412
2017-05-14T03:19:17.011Z,448
2017-05-14T03:20:29.534Z,484
2017-05-14T03:21:41.453Z,520
2017-05-14T03:22:54.038Z,560
2017-05-14T03:24:06.567Z,600
2017-05-14T03:25:18.769Z,644
2017-05-14T03:26:31.312Z,688
2017-05-14T03:27:43.857Z,736
2017-05-14T03:28:56.393Z,784
2017-05-14T03:30:08.901Z,836
2017-05-14T03:31:21.435Z,888
2017-05-14T03:32:33.961Z,936
2017-05-14T03:33:46.486Z,988
2017-05-14T03:34:58.408Z,1044
2017-05-14T03:36:10.651Z,1104
2017-05-14T03:37:23.193Z,1172
2017-05-14T03:38:35.721Z,1244
2017-05-14T03:39:48.270Z,1336
2017-05-14T03:41:00.516Z,1416
2017-05-14T03:42:12.758Z,1488
2017-05-14T03:43:24.981Z,1532
2017-05-14T03:44:37.243Z,1576
2017-05-14T03:45:49.789Z,1628
2017-05-14T03:47:02.316Z,1692
2017-05-14T03:48:14.534Z,1772
2017-05-14T03:49:26.777Z,1868
2017-05-14T03:50:39.319Z,1976
2017-05-14T03:51:51.869Z,2052
2017-05-14T03:53:04.401Z,2108
2017-05-14T03:54:16.940Z,2164
2017-05-14T03:55:29.482Z,2244
2017-05-14T03:56:42.042Z,2328
2017-05-14T03:57:54.573Z,2412
2017-05-14T03:59:07.144Z,2484
2017-05-14T04:00:19.375Z,2552
2017-05-14T04:01:31.619Z,2636
2017-05-14T04:02:43.611Z,2736
2017-05-14T04:03:55.834Z,2816
2017-05-14T04:05:08.377Z,2884
2017-05-14T04:06:20.602Z,2968
2017-05-14T04:07:33.120Z,3056
2017-05-14T04:08:45.657Z,3172
2017-05-14T04:09:57.933Z,3244
2017-05-14T04:11:10.533Z,3344
2017-05-14T04:12:22.496Z,3472
2017-05-14T04:13:35.021Z,3592
2017-05-14T04:14:47.591Z,3680
2017-05-14T04:16:00.094Z,3824
2017-05-14T04:17:12.658Z,3888
2017-05-14T04:18:25.193Z,4196
2017-05-14T04:19:37.705Z,4208
2017-05-14T04:20:50.250Z,4280
2017-05-14T04:22:02.780Z,4292
2017-05-14T04:23:15.291Z,4424
2017-05-14T04:24:27.514Z,4424
2017-05-14T04:25:40.077Z,4692
2017-05-14T04:26:52.858Z,4768
2017-05-14T04:28:05.400Z,4532
2017-05-14T04:29:17.929Z,4816
2017-05-14T04:30:30.167Z,4852
2017-05-14T04:31:42.691Z,4940
2017-05-14T04:32:55.251Z,4996
2017-05-14T04:34:07.783Z,5064
2017-05-14T04:35:20.347Z,5172
2017-05-14T04:36:32.271Z,5228
2017-05-14T04:37:45.135Z,5404
2017-05-14T04:38:57.041Z,5496
2017-05-14T04:40:09.269Z,5780
2017-05-14T04:41:21.834Z,6152
2017-05-14T04:42:34.377Z,6784
2017-05-14T04:43:46.316Z,6372
2017-05-14T04:44:58.843Z,6156
2017-05-14T04:46:11.411Z,5904
2017-05-14T04:47:23.635Z,5960
2017-05-14T04:48:36.131Z,6016
2017-05-14T04:49:48.652Z,6236
2017-05-14T04:51:00.905Z,6732
2017-05-14T04:52:13.448Z,7176
2017-05-14T04:53:26.010Z,7752
2017-05-14T04:54:38.231Z,7288
2017-05-14T04:55:50.756Z,7408
2017-05-14T04:57:03.256Z,7572
2017-05-14T04:58:15.803Z,7168
2017-05-14T04:59:28.348Z,6596
2017-05-14T05:00:40.915Z,6452
2017-05-14T05:01:53.414Z,6548
2017-05-14T05:03:05.650Z,6460
2017-05-14T05:04:17.578Z,6432
2017-05-14T05:05:30.145Z,6516
2017-05-14T05:06:42.711Z,6464
2017-05-14T05:07:54.944Z,6708
2017-05-14T05:09:07.465Z,6796
2017-05-14T05:10:20.011Z,6872
2017-05-14T05:11:32.557Z,7020
2017-05-14T05:12:45.077Z,7224
2017-05-14T05:13:57.321Z,7324
2017-05-14T05:15:09.837Z,7152
2017-05-14T05:16:21.765Z,7556
2017-05-14T05:17:33.990Z,8904
2017-05-14T05:18:46.532Z,9660
2017-05-14T05:19:58.775Z,9512
2017-05-14T05:21:11.627Z,7480
2017-05-14T05:22:23.891Z,7624
2017-05-14T05:23:36.155Z,7992
2017-05-14T05:24:48.387Z,7856
2017-05-14T05:26:00.939Z,7972
2017-05-14T05:27:13.480Z,7816
2017-05-14T05:28:26.021Z,7684
2017-05-14T05:29:38.563Z,7676
2017-05-14T05:30:51.087Z,7692
2017-05-14T05:32:03.900Z,7792
2017-05-14T05:33:16.471Z,8184
2017-05-14T05:34:28.721Z,8788
2017-05-14T05:35:40.946Z,8180
2017-05-14T05:36:53.196Z,8304
2017-05-14T05:38:05.743Z,8176
2017-05-14T05:39:18.285Z,8264
2017-05-14T05:40:30.811Z,8256
2017-05-14T05:41:43.329Z,8304
2017-05-14T05:42:55.576Z,8332
2017-05-14T05:44:08.095Z,8364
2017-05-14T05:45:20.014Z,8472
2017-05-14T05:46:32.537Z,8520
2017-05-14T05:47:45.085Z,8580
2017-05-14T05:48:57.605Z,8832
2017-05-14T05:50:10.148Z,9704
2017-05-14T05:51:22.411Z,9116
2017-05-14T05:52:34.342Z,9160
2017-05-14T05:53:46.893Z,9568
2017-05-14T05:54:59.431Z,9112
2017-05-14T05:56:11.978Z,9304
2017-05-14T05:57:24.523Z,9080
2017-05-14T05:58:37.048Z,10652
2017-05-14T05:59:49.567Z,15292
2017-05-14T06:01:02.103Z,13884
2017-05-14T06:02:14.356Z,11268
2017-05-14T06:03:26.936Z,11484
2017-05-14T06:04:39.180Z,11156
2017-05-14T06:05:51.716Z,9812
2017-05-14T06:07:04.215Z,9388
2017-05-14T06:08:16.442Z,9792
2017-05-14T06:09:28.664Z,11040
2017-05-14T06:10:41.201Z,12080
2017-05-14T06:11:53.753Z,15700
2017-05-14T06:13:06.270Z,18336
2017-05-14T06:14:18.209Z,18624
2017-05-14T06:15:30.736Z,19712
2017-05-14T06:16:42.957Z,36832
2017-05-14T06:17:55.182Z,26784
2017-05-14T06:19:07.729Z,18720
2017-05-14T06:20:20.274Z,17456
2017-05-14T06:21:32.815Z,20192
2017-05-14T06:22:45.059Z,28864
2017-05-14T06:23:57.562Z,24224
2017-05-14T06:25:10.107Z,27488
2017-05-14T06:26:22.346Z,43424
2017-05-14T06:27:34.891Z,47776
2017-05-14T06:28:47.117Z,44480
2017-05-14T06:29:59.665Z,44096
2017-05-14T06:31:11.605Z,43072
2017-05-14T06:32:23.851Z,38880
2017-05-14T06:33:36.104Z,43232
2017-05-14T06:34:48.639Z,37824
2017-05-14T06:36:01.167Z,31872
2017-05-14T06:37:14.014Z,30816
2017-05-14T06:38:26.537Z,32928
2017-05-14T06:39:39.085Z,34624
2017-05-14T06:40:51.630Z,37728
2017-05-14T06:42:03.872Z,38464
2017-05-14T06:43:16.392Z,41568
2017-05-14T06:44:28.917Z,42720
2017-05-14T06:45:41.443Z,43808
2017-05-14T06:46:53.428Z,50112
2017-05-14T06:48:05.980Z,51232
2017-05-14T06:49:18.243Z,52896
2017-05-14T06:50:30.797Z,53344
2017-05-14T06:51:43.064Z,49472
2017-05-14T06:52:55.605Z,49312
2017-05-14T06:54:07.831Z,53440
2017-05-14T06:55:20.082Z,53792
2017-05-14T06:56:32.647Z,55008
2017-05-14T06:57:45.196Z,57632
2017-05-14T06:58:57.719Z,57504
2017-05-14T07:00:09.385Z,57056
2017-05-14T07:01:21.324Z,57216
2017-05-14T07:02:33.844Z,58048
2017-05-14T07:03:46.402Z,59648
2017-05-14T07:04:58.920Z,59936
2017-05-14T07:06:11.190Z,58144
2017-05-14T07:07:23.435Z,55488
2017-05-14T07:08:35.985Z,56032
2017-05-14T07:09:48.545Z,60768
2017-05-14T07:11:01.094Z,61952
2017-05-14T07:12:13.647Z,59904
2017-05-14T07:13:25.870Z,61248
2017-05-14T07:14:38.411Z,61120
2017-05-14T07:15:50.931Z,60704
2017-05-14T07:17:03.181Z,62432
2017-05-14T07:18:15.429Z,63936
2017-05-14T07:19:27.988Z,63488
2017-05-14T07:20:40.244Z,62144
2017-05-14T07:21:52.817Z,63136
2017-05-14T07:23:05.361Z,61248
2017-05-14T07:24:17.350Z,57152
2017-05-14T07:25:29.895Z,60032
2017-05-14T07:26:42.451Z,61888
2017-05-14T07:27:54.994Z,62240
2017-05-14T07:29:07.562Z,61408
2017-05-14T07:30:20.140Z,60352
2017-05-14T07:31:33.024Z,57440
2017-05-14T07:32:45.267Z,58624
2017-05-14T07:33:57.847Z,57536
2017-05-14T07:35:10.112Z,58816
2017-05-14T07:36:22.364Z,59552
2017-05-14T07:37:34.913Z,57984
2017-05-14T07:38:47.435Z,59008
2017-05-14T07:39:59.978Z,59744
2017-05-14T07:41:12.553Z,59680
2017-05-14T07:42:25.121Z,53888
2017-05-14T07:43:37.681Z,51360
2017-05-14T07:44:50.234Z,47616
2017-05-14T07:46:02.783Z,40896
2017-05-14T07:47:14.767Z,36288
2017-05-14T07:48:27.067Z,36352
2017-05-14T07:49:39.320Z,31936
2017-05-14T07:50:51.584Z,36096
2017-05-14T07:52:03.835Z,50880
2017-05-14T07:53:16.380Z,51936
2017-05-14T07:54:28.947Z,49248
2017-05-14T07:55:41.496Z,42112
2017-05-14T07:56:53.746Z,35904
2017-05-14T07:58:06.011Z,37472
2017-05-14T07:59:18.564Z,38752
2017-05-14T08:00:30.831Z,49472
2017-05-14T08:01:43.380Z,54368
2017-05-14T08:02:55.925Z,66880
2017-05-14T08:04:08.198Z,64064
2017-05-14T08:05:20.165Z,68608
2017-05-14T08:06:32.716Z,75328
2017-05-14T08:07:44.982Z,75520
2017-05-14T08:08:57.557Z,68448
2017-05-14T08:10:09.848Z,63392
2017-05-14T08:11:22.095Z,59936
2017-05-14T08:12:34.357Z,57024
2017-05-14T08:13:46.361Z,20000
2017-05-14T08:14:58.911Z,16900
2017-05-14T08:16:11.453Z,30784
2017-05-14T08:17:23.398Z,50848
2017-05-14T08:18:35.645Z,60832
2017-05-14T08:19:48.220Z,68704
2017-05-14T08:21:00.480Z,72448
2017-05-14T08:22:12.787Z,75552
2017-05-14T08:23:25.332Z,80960
2017-05-14T08:24:37.274Z,81728
2017-05-14T08:25:49.241Z,75872
2017-05-14T08:27:01.793Z,36096
2017-05-14T08:28:14.312Z,14100
2017-05-14T08:29:26.564Z,39040
2017-05-14T08:30:38.860Z,56320
2017-05-14T08:31:51.442Z,61920
2017-05-14T08:33:03.970Z,65408
2017-05-14T08:34:16.221Z,69024
2017-05-14T08:35:28.763Z,69632
2017-05-14T08:36:41.337Z,71936
2017-05-14T08:37:53.904Z,76800
2017-05-14T08:39:06.455Z,76832
2017-05-14T08:40:18.721Z,73568
2017-05-14T08:41:31.271Z,76032
2017-05-14T08:42:43.856Z,61664
2017-05-14T08:43:56.431Z,22048
2017-05-14T08:45:08.972Z,33568
2017-05-14T08:46:21.554Z,76704
2017-05-14T08:47:34.125Z,84256
2017-05-14T08:48:46.713Z,85920
2017-05-14T08:49:59.258Z,86272
2017-05-14T08:51:11.512Z,84640
2017-05-14T08:52:23.785Z,87168
2017-05-14T08:53:36.047Z,76736
2017-05-14T08:54:48.292Z,90496
2017-05-14T08:56:00.568Z,87168
2017-05-14T08:57:13.185Z,84736
2017-05-14T08:58:26.010Z,45056
2017-05-14T08:59:38.559Z,40128
2017-05-14T09:00:50.822Z,58048
2017-05-14T09:02:03.090Z,64704
2017-05-14T09:03:15.347Z,49184
2017-05-14T09:04:27.936Z,36992
2017-05-14T09:05:40.189Z,59936
2017-05-14T09:06:52.451Z,52032
2017-05-14T09:08:04.703Z,65088
2017-05-14T09:09:17.247Z,60544
2017-05-14T09:10:29.794Z,63456
2017-05-14T09:11:42.048Z,71904
2017-05-14T09:12:54.586Z,71232
2017-05-14T09:14:07.149Z,70144
2017-05-14T09:15:19.718Z,80160
2017-05-14T09:16:32.001Z,77312
2017-05-14T09:17:44.573Z,74304
2017-05-14T09:18:57.120Z,71296
2017-05-14T09:20:09.364Z,71968
2017-05-14T09:21:21.607Z,65472
2017-05-14T09:22:33.855Z,58144
2017-05-14T09:23:46.144Z,24352
2017-05-14T09:24:58.391Z,22432
2017-05-14T09:26:10.637Z,52960
2017-05-14T09:27:22.907Z,59520
2017-05-14T09:28:35.457Z,56256
2017-05-14T09:29:47.708Z,51584
2017-05-14T09:30:59.977Z,47904
2017-05-14T09:32:12.562Z,44704
2017-05-14T09:33:24.819Z,42272
2017-05-14T09:34:37.364Z,39008
2017-05-14T09:35:49.950Z,36448
2017-05-14T09:37:01.925Z,36256
2017-05-14T09:38:14.495Z,35136
2017-05-14T09:39:26.746Z,34048
2017-05-14T09:40:38.991Z,35552
2017-05-14T09:41:51.238Z,38944
2017-05-14T09:43:03.505Z,34240
2017-05-14T09:44:15.774Z,32928
2017-05-14T09:45:27.409Z,33056
2017-05-14T09:46:39.971Z,43680
2017-05-14T09:47:52.521Z,35232
2017-05-14T09:49:04.860Z,82848
2017-05-14T09:50:17.437Z,41472
2017-05-14T09:51:29.404Z,34976
2017-05-14T09:52:42.197Z,32608
2017-05-14T09:53:54.747Z,38240
2017-05-14T09:55:06.996Z,44320
2017-05-14T09:56:19.557Z,76128
2017-05-14T09:57:32.112Z,73024
2017-05-14T09:58:44.656Z,74272
2017-05-14T09:59:56.905Z,70656
2017-05-14T10:01:09.526Z,20000
2017-05-14T10:02:21.800Z,20096
2017-05-14T10:03:34.339Z,23872
2017-05-14T10:04:46.888Z,66336
2017-05-14T10:05:59.153Z,58496
2017-05-14T10:07:11.426Z,71104
2017-05-14T10:08:23.350Z,33952
2017-05-14T10:09:35.911Z,41504
2017-05-14T10:10:47.882Z,28896
2017-05-14T10:12:00.489Z,19264
2017-05-14T10:13:12.738Z,18592
2017-05-14T10:14:24.971Z,17812
2017-05-14T10:15:37.529Z,17980
2017-05-14T10:16:49.761Z,18976
2017-05-14T10:18:02.308Z,19776
2017-05-14T10:19:14.836Z,21408
2017-05-14T10:20:27.360Z,24672
2017-05-14T10:21:39.928Z,29888
2017-05-14T10:22:52.474Z,34848
2017-05-14T10:24:05.021Z,50112
2017-05-14T10:25:17.246Z,45984
2017-05-14T10:26:29.462Z,50976
2017-05-14T10:27:41.990Z,83392
2017-05-14T10:28:54.573Z,38880
2017-05-14T10:30:07.142Z,25920
2017-05-14T10:31:19.370Z,25376
2017-05-14T10:32:31.908Z,28064
2017-05-14T10:33:44.466Z,37920
2017-05-14T10:34:57.011Z,30688
2017-05-14T10:36:09.596Z,33024
2017-05-14T10:37:21.854Z,34464
2017-05-14T10:38:34.075Z,85824
2017-05-14T10:39:46.617Z,78464
2017-05-14T10:40:59.191Z,17824
2017-05-14T10:42:11.750Z,15388
2017-05-14T10:43:24.300Z,15344
2017-05-14T10:44:36.922Z,16828
2017-05-14T10:45:49.471Z,19488
2017-05-14T10:47:02.017Z,24480
2017-05-14T10:48:14.316Z,54688
2017-05-14T10:49:26.284Z,88000
2017-05-14T10:50:38.834Z,25760
2017-05-14T10:51:51.396Z,22688
2017-05-14T10:53:04.014Z,23104
2017-05-14T10:54:16.244Z,21984
2017-05-14T10:55:28.467Z,20160
2017-05-14T10:56:40.736Z,17792
2017-05-14T10:57:52.998Z,17404
2017-05-14T10:59:05.544Z,18848
2017-05-14T11:00:17.799Z,19744
2017-05-14T11:01:30.369Z,25728
2017-05-14T11:02:42.941Z,24480
2017-05-14T11:03:54.864Z,18368
2017-05-14T11:05:07.123Z,15792
2017-05-14T11:06:19.079Z,17364
2017-05-14T11:07:31.347Z,23328
2017-05-14T11:08:43.898Z,56992
2017-05-14T11:09:55.839Z,67744
2017-05-14T11:11:08.385Z,23936
2017-05-14T11:12:20.934Z,24576
2017-05-14T11:13:33.483Z,26528
2017-05-14T11:14:46.047Z,78400
2017-05-14T11:15:58.298Z,77248
2017-05-14T11:17:10.844Z,86272
2017-05-14T11:18:23.091Z,83296
2017-05-14T11:19:35.949Z,82912
2017-05-14T11:20:48.205Z,80640
2017-05-14T11:22:00.774Z,56640
2017-05-14T11:23:13.017Z,55872
2017-05-14T11:24:25.564Z,39904
2017-05-14T11:25:37.486Z,54112
2017-05-14T11:26:50.032Z,69760
2017-05-14T11:28:01.956Z,76608
2017-05-14T11:29:13.913Z,78016
2017-05-14T11:30:26.470Z,78816
2017-05-14T11:31:38.994Z,78240
2017-05-14T11:32:51.563Z,69920
2017-05-14T11:34:03.782Z,69728
2017-05-14T11:35:16.308Z,62976
2017-05-14T11:36:28.878Z,44064
2017-05-14T11:37:41.438Z,61696
2017-05-14T11:38:54.093Z,59488
2017-05-14T11:40:06.637Z,67744
2017-05-14T11:41:18.886Z,63808
2017-05-14T11:42:31.456Z,65088
2017-05-14T11:43:44.031Z,69280
2017-05-14T11:44:56.616Z,66400
2017-05-14T11:46:09.209Z,69312
2017-05-14T11:47:21.191Z,77472
2017-05-14T11:48:33.729Z,77216
2017-05-14T11:49:46.305Z,77792
2017-05-14T11:50:58.227Z,72448
2017-05-14T11:52:10.813Z,27072
2017-05-14T11:53:23.086Z,71808
2017-05-14T11:54:35.642Z,73472
2017-05-14T11:55:48.189Z,75200
2017-05-14T11:57:00.759Z,77696
2017-05-14T11:58:12.728Z,77408
2017-05-14T11:59:25.293Z,79776
2017-05-14T12:00:37.846Z,65088
2017-05-14T12:01:50.113Z,36256
2017-05-14T12:03:02.351Z,56192
2017-05-14T12:04:14.648Z,13412
2017-05-14T12:05:26.906Z,10120
2017-05-14T12:06:39.477Z,10136
2017-05-14T12:07:51.751Z,10716
2017-05-14T12:09:04.310Z,14488
2017-05-14T12:10:16.861Z,13408
2017-05-14T12:11:29.380Z,20768
2017-05-14T12:12:41.976Z,19072
2017-05-14T12:13:54.522Z,18848
2017-05-14T12:15:07.044Z,21120
2017-05-14T12:16:19.292Z,29856
2017-05-14T12:17:31.881Z,49184
2017-05-14T12:18:44.431Z,26880
2017-05-14T12:19:56.697Z,23232
2017-05-14T12:21:09.267Z,19712
2017-05-14T12:22:21.821Z,18496
2017-05-14T12:23:34.368Z,18720
2017-05-14T12:24:46.939Z,21120
2017-05-14T12:25:59.482Z,21280
2017-05-14T12:27:12.032Z,21600
2017-05-14T12:28:24.278Z,19552
2017-05-14T12:29:36.848Z,19136
2017-05-14T12:30:49.644Z,19296
2017-05-14T12:32:02.191Z,19392
2017-05-14T12:33:14.732Z,19680
2017-05-14T12:34:27.285Z,19712
2017-05-14T12:35:39.844Z,19488
2017-05-14T12:36:52.398Z,20128
2017-05-14T12:38:04.948Z,20992
2017-05-14T12:39:17.519Z,21632
2017-05-14T12:40:30.082Z,21984
2017-05-14T12:41:42.627Z,22144
2017-05-14T12:42:54.874Z,22016
2017-05-14T12:44:07.120Z,21760
2017-05-14T12:45:19.694Z,21216
2017-05-14T12:46:32.257Z,20480
2017-05-14T12:47:44.807Z,19584
2017-05-14T12:48:57.330Z,18496
2017-05-14T12:50:09.574Z,17192
2017-05-14T12:51:21.824Z,15932
2017-05-14T12:52:34.363Z,14816
2017-05-14T12:53:46.909Z,13512
2017-05-14T12:54:59.159Z,12508
2017-05-14T12:56:11.704Z,11932
2017-05-14T12:57:23.946Z,11400
2017-05-14T12:58:36.489Z,10936
2017-05-14T12:59:49.043Z,10672
2017-05-14T13:01:01.563Z,10620
2017-05-14T13:02:14.104Z,10636
2017-05-14T13:03:26.055Z,10552
2017-05-14T13:04:38.603Z,10200
2017-05-14T13:05:51.146Z,9800
2017-05-14T13:07:03.691Z,9372
2017-05-14T13:08:15.615Z,8956
2017-05-14T13:09:27.867Z,8560
2017-05-14T13:10:40.405Z,8272
2017-05-14T13:11:52.626Z,8020
2017-05-14T13:13:05.149Z,7892
2017-05-14T13:14:17.393Z,7888
2017-05-14T13:15:29.941Z,7776
2017-05-14T13:16:42.202Z,7572
2017-05-14T13:17:54.451Z,7276
2017-05-14T13:19:07.254Z,6964
2017-05-14T13:20:19.798Z,6632
2017-05-14T13:21:32.039Z,6328
2017-05-14T13:22:44.569Z,6016
2017-05-14T13:23:56.514Z,5708
2017-05-14T13:25:09.030Z,5428
2017-05-14T13:26:21.255Z,5192
2017-05-14T13:27:33.772Z,4980
2017-05-14T13:28:46.001Z,4792
2017-05-14T13:29:58.565Z,4632
2017-05-14T13:31:11.065Z,4496
2017-05-14T13:32:23.285Z,4372
2017-05-14T13:33:35.845Z,4240
2017-05-14T13:34:48.372Z,4108
2017-05-14T13:36:00.595Z,3996
2017-05-14T13:37:13.143Z,3908
2017-05-14T13:38:25.707Z,3852
2017-05-14T13:39:38.232Z,3804
2017-05-14T13:40:50.456Z,3740
2017-05-14T13:42:02.727Z,3612
2017-05-14T13:43:14.973Z,3452
2017-05-14T13:44:27.508Z,3292
2017-05-14T13:45:40.104Z,3208
2017-05-14T13:46:52.387Z,3200
2017-05-14T13:48:04.949Z,3244
2017-05-14T13:49:17.197Z,3328
2017-05-14T13:50:29.738Z,3404
2017-05-14T13:51:42.594Z,3404
2017-05-14T13:52:55.155Z,3300
2017-05-14T13:54:07.388Z,3184
2017-05-14T13:55:19.628Z,3224
2017-05-14T13:56:32.175Z,3348
2017-05-14T13:57:44.700Z,3556
2017-05-14T13:58:57.246Z,3824
2017-05-14T14:00:09.196Z,4060
2017-05-14T14:01:21.439Z,4276
2017-05-14T14:02:34.004Z,4388
2017-05-14T14:03:46.543Z,4448
2017-05-14T14:04:58.776Z,4500
2017-05-14T14:06:10.417Z,4600
2017-05-14T14:07:22.666Z,4704
2017-05-14T14:08:34.909Z,4792
2017-05-14T14:09:47.430Z,4928
2017-05-14T14:10:59.970Z,5084
2017-05-14T14:12:12.499Z,5200
2017-05-14T14:13:25.035Z,5276
2017-05-14T14:14:37.581Z,5328
2017-05-14T14:15:50.132Z,5320
2017-05-14T14:17:02.658Z,5276
2017-05-14T14:18:14.646Z,5220
2017-05-14T14:19:26.902Z,5164
2017-05-14T14:20:39.440Z,5092
2017-05-14T14:21:51.994Z,4992
2017-05-14T14:23:04.553Z,4892
2017-05-14T14:24:16.806Z,4768
2017-05-14T14:25:29.329Z,4680
2017-05-14T14:26:41.873Z,4656
2017-05-14T14:27:54.093Z,4616
2017-05-14T14:29:06.644Z,4644
2017-05-14T14:30:18.866Z,4656
2017-05-14T14:31:31.435Z,4688
2017-05-14T14:32:43.981Z,4712
2017-05-14T14:33:56.501Z,4696
2017-05-14T14:35:08.762Z,4664
2017-05-14T14:36:21.015Z,4700
2017-05-14T14:37:33.256Z,4784
2017-05-14T14:38:45.490Z,4936
2017-05-14T14:39:57.731Z,5188
2017-05-14T14:41:10.274Z,5500
2017-05-14T14:42:22.795Z,5804
2017-05-14T14:43:35.332Z,6124
2017-05-14T14:44:47.864Z,6472
2017-05-14T14:46:00.407Z,6844
2017-05-14T14:47:12.956Z,7284
2017-05-14T14:48:24.920Z,7760
2017-05-14T14:49:37.490Z,8372
2017-05-14T14:50:50.047Z,9080
2017-05-14T14:52:02.290Z,9732
2017-05-14T14:53:14.860Z,10332
2017-05-14T14:54:27.082Z,11128
2017-05-14T14:55:39.325Z,11944
2017-05-14T14:56:51.574Z,12756
2017-05-14T14:58:03.796Z,13496
2017-05-14T14:59:16.340Z,14256
2017-05-14T15:00:28.600Z,14788
2017-05-14T15:01:41.147Z,14904
2017-05-14T15:02:53.679Z,14820
2017-05-14T15:04:05.925Z,14600
2017-05-14T15:05:18.437Z,14388
2017-05-14T15:06:30.666Z,14292
2017-05-14T15:07:42.883Z,14308
2017-05-14T15:08:55.135Z,14356
2017-05-14T15:10:07.378Z,14316
2017-05-14T15:11:19.617Z,14120
2017-05-14T15:12:32.146Z,13760
2017-05-14T15:13:44.688Z,13416
2017-05-14T15:14:57.263Z,13328
2017-05-14T15:16:09.509Z,13392
2017-05-14T15:17:21.450Z,13372
2017-05-14T15:18:34.025Z,13136
2017-05-14T15:19:46.590Z,12792
2017-05-14T15:20:58.816Z,12480
2017-05-14T15:22:10.752Z,12292
2017-05-14T15:23:23.280Z,12272
2017-05-14T15:24:35.785Z,12240
2017-05-14T15:25:48.318Z,11968
2017-05-14T15:27:00.861Z,11412
2017-05-14T15:28:13.089Z,10608
2017-05-14T15:29:25.351Z,9640
2017-05-14T15:30:37.883Z,8644
2017-05-14T15:31:50.131Z,7852
2017-05-14T15:33:02.693Z,7348
2017-05-14T15:34:14.953Z,6996
2017-05-14T15:35:27.511Z,6700
2017-05-14T15:36:39.761Z,6476
2017-05-14T15:37:52.306Z,6352
2017-05-14T15:39:04.852Z,6332
2017-05-14T15:40:17.691Z,6396
2017-05-14T15:41:30.265Z,6480
2017-05-14T15:42:42.538Z,6636
2017-05-14T15:43:55.083Z,6948
2017-05-14T15:45:07.636Z,7368
2017-05-14T15:46:19.578Z,7752
2017-05-14T15:47:32.097Z,7956
2017-05-14T15:48:44.319Z,7984
2017-05-14T15:49:56.843Z,7844
2017-05-14T15:51:09.389Z,7580
2017-05-14T15:52:21.349Z,7272
2017-05-14T15:53:33.882Z,6832
2017-05-14T15:54:46.425Z,6400
2017-05-14T15:55:58.662Z,6224
2017-05-14T15:57:11.190Z,6344
2017-05-14T15:58:23.116Z,6696
2017-05-14T15:59:35.358Z,7160
2017-05-14T16:00:47.883Z,7712
2017-05-14T16:02:00.429Z,8552
2017-05-14T16:03:12.677Z,9664
2017-05-14T16:04:25.197Z,10792
2017-05-14T16:05:37.454Z,11384
2017-05-14T16:06:49.986Z,11360
2017-05-14T16:08:02.249Z,10928